Time;durP1;ratioP1;P1;durP2;ratioP2;P2;SDS_P1;SDS_P2;PMS_P1;PMS_P2;Temp;Humidity;BMP_temperature;BMP_pressure;BME280_temperature;BME280_humidity;BME280_pressure;Samples;Min_cycle;Max_cycle;Signal;HPM_P1;HPM_P2
2023/06/16 00:02:30;;;;;;;2.85;0.90;;;;;;;;;;20791782;28;20278;-82
2023/06/16 00:12:31;;;;;;;3.25;1.40;;;;;;;;;;20792236;28;20236;-81
2023/06/16 00:22:34;;;;;;;1.55;1.05;;;;;;;;;;20777148;28;20233;-81
2023/06/16 00:32:36;;;;;;;2.85;1.10;;;;;;;;;;20793520;28;20259;-81
2023/06/16 00:42:38;;;;;;;4.90;1.33;;;;;;;;;;20773981;28;20715;-82
2023/06/16 00:52:39;;;;;;;3.40;1.10;;;;;;;;;;20753661;28;20229;-82
2023/06/16 01:02:44;;;;;;;3.22;1.23;;;;;;;;;;20768120;28;20861;-83
2023/06/16 01:12:58;;;;;;;2.03;1.00;;;;;;;;;;20788580;28;20726;-82
2023/06/16 01:23:15;;;;;;;2.38;1.10;;;;;;;;;;20780008;28;20304;-82
2023/06/16 01:33:19;;;;;;;1.48;1.00;;;;;;;;;;20795863;28;20619;-84
2023/06/16 01:43:46;;;;;;;2.33;1.33;;;;;;;;;;20803993;28;20231;-85
2023/06/16 01:54:03;;;;;;;4.22;1.20;;;;;;;;;;20815834;28;20253;-84
2023/06/16 02:15:42;;;;;;;1.40;1.02;;;;;;;;;;20771902;28;20215;-83
2023/06/16 02:25:44;;;;;;;3.47;1.33;;;;;;;;;;20764641;28;20247;-83
2023/06/16 02:35:45;;;;;;;2.03;0.95;;;;;;;;;;20786822;28;20233;-82
2023/06/16 02:45:48;;;;;;;1.48;0.85;;;;;;;;;;20771502;28;20270;-82
2023/06/16 02:55:51;;;;;;;1.95;0.85;;;;;;;;;;20847001;23;20231;-70
2023/06/16 03:05:54;;;;;;;2.92;0.93;;;;;;;;;;20765983;28;20292;-70
2023/06/16 03:16:00;;;;;;;1.38;1.00;;;;;;;;;;20767242;28;20216;-70
2023/06/16 03:26:03;;;;;;;3.13;1.30;;;;;;;;;;20780200;28;20229;-70
2023/06/16 03:36:26;;;;;;;3.83;1.13;;;;;;;;;;20773811;28;20221;-70
2023/06/16 03:46:31;;;;;;;3.88;1.65;;;;;;;;;;20781549;28;20228;-66
2023/06/16 03:56:34;;;;;;;3.53;1.50;;;;;;;;;;20789677;28;20245;-66
2023/06/16 04:06:36;;;;;;;2.53;1.20;;;26.90;88.90;;;;;;20802777;28;20234;-66
2023/06/16 04:16:42;;;;;;;3.60;1.20;;;;;;;;;;20743374;28;20213;-65
2023/06/16 04:26:48;;;;;;;4.50;1.20;;;;;;;;;;20774808;28;21092;-65
2023/06/16 04:36:50;;;;;;;4.57;1.30;;;;;;;;;;20773828;28;20322;-65
2023/06/16 04:47:03;;;;;;;2.50;1.10;;;;;;;;;;20790117;28;20593;-67
2023/06/16 04:57:07;;;;;;;4.93;1.03;;;;;;;;;;20769044;28;20219;-66
2023/06/16 05:07:11;;;;;;;1.43;0.80;;;;;;;;;;20780967;28;20244;-66
2023/06/16 05:17:13;;;;;;;1.60;1.10;;;;;;;;;;20762108;28;20191;-66
2023/06/16 05:27:16;;;;;;;1.95;1.10;;;;;;;;;;20770141;28;20246;-66
2023/06/16 05:37:20;;;;;;;2.97;1.23;;;;;;;;;;20783419;28;20213;-66
2023/06/16 05:47:24;;;;;;;2.58;1.15;;;;;;;;;;20768161;28;20258;-65
2023/06/16 05:57:30;;;;;;;2.20;1.15;;;;;;;;;;20758021;28;20676;-65
2023/06/16 06:07:32;;;;;;;1.47;1.00;;;;;;;;;;20805764;28;20229;-72
2023/06/16 06:17:34;;;;;;;2.75;1.30;;;;;;;;;;20779190;28;20295;-70
2023/06/16 06:27:37;;;;;;;4.72;0.90;;;;;;;;;;20770908;28;20251;-71
2023/06/16 06:37:40;;;;;;;5.78;1.30;;;23.30;85.10;;;;;;20744332;28;20687;-71
2023/06/16 06:47:42;;;;;;;6.07;1.35;;;;;;;;;;20760683;28;20229;-71
2023/06/16 06:57:47;;;;;;;3.50;1.10;;;;;;;;;;20761603;28;20290;-72
2023/06/16 07:07:49;;;;;;;2.63;1.05;;;;;;;;;;20789207;28;20236;-74
2023/06/16 07:17:51;;;;;;;2.00;1.20;;;;;;;;;;20776032;28;20315;-72
2023/06/16 07:27:53;;;;;;;2.47;1.13;;;;;;;;;;20807484;28;20232;-72
2023/06/16 07:37:56;;;;;;;1.67;1.05;;;;;;;;;;20758292;28;20217;-74
2023/06/16 07:47:58;;;;;;;3.22;0.98;;;;;;;;;;20755653;28;20283;-70
2023/06/16 07:58:00;;;;;;;1.77;1.10;;;;;;;;;;20772220;28;20223;-70
2023/06/16 08:08:02;;;;;;;2.17;1.10;;;;;;;;;;20776570;28;20222;-70
2023/06/16 08:18:04;;;;;;;2.35;1.65;;;;;;;;;;20774216;28;20268;-71
2023/06/16 08:28:07;;;;;;;2.10;1.10;;;;;;;;;;20789595;28;20224;-70
2023/06/16 08:38:09;;;;;;;2.00;1.40;;;;;;;;;;20760417;28;20259;-72
2023/06/16 08:48:11;;;;;;;2.90;1.00;;;24.20;72.50;;;;;;20766530;28;20236;-71
2023/06/16 08:58:16;;;;;;;3.45;1.00;;;;;;;;;;20772311;28;20227;-72
2023/06/16 09:08:18;;;;;;;3.22;1.20;;;;;;;;;;20756404;28;20233;-71
2023/06/16 09:18:20;;;;;;;2.25;1.10;;;;;;;;;;20755258;28;20221;-72
2023/06/16 09:28:34;;;;;;;1.55;1.15;;;;;;;;;;20760395;28;20295;-72
2023/06/16 09:38:36;;;;;;;1.20;0.80;;;;;;;;;;20766132;28;20214;-72
2023/06/16 09:48:46;;;;;;;3.13;1.10;;;;;;;;;;20762884;28;20261;-72
2023/06/16 09:58:48;;;;;;;2.33;1.20;;;27.60;72.90;;;;;;20775193;28;20278;-72
2023/06/16 10:08:50;;;;;;;1.90;1.20;;;;;;;;;;20757737;28;20233;-73
2023/06/16 10:18:54;;;;;;;1.67;1.05;;;;;;;;;;20767197;28;20209;-73
2023/06/16 10:28:57;;;;;;;1.20;0.93;;;;;;;;;;20783980;28;20216;-73
2023/06/16 10:39:01;;;;;;;6.03;1.63;;;;;;;;;;20783952;28;20275;-72
2023/06/16 10:49:02;;;;;;;2.35;1.20;;;;;;;;;;20783931;28;20228;-73
2023/06/16 10:59:15;;;;;;;2.03;1.00;;;;;;;;;;20808007;28;20644;-73
2023/06/16 11:09:18;;;;;;;1.83;0.95;;;28.90;70.10;;;;;;20781443;28;20225;-73
2023/06/16 11:19:20;;;;;;;1.50;0.80;;;;;;;;;;20796848;28;20233;-74
2023/06/16 11:29:25;;;;;;;1.92;0.85;;;;;;;;;;20775999;28;20234;-74
2023/06/16 11:39:27;;;;;;;2.38;1.20;;;;;;;;;;20791888;28;20222;-72
2023/06/16 11:49:28;;;;;;;2.45;0.73;;;;;;;;;;20772982;28;20225;-73
2023/06/16 11:59:32;;;;;;;3.80;1.15;;;;;;;;;;20776140;28;20226;-73
2023/06/16 12:09:37;;;;;;;2.10;0.90;;;;;;;;;;20775542;28;20230;-72
2023/06/16 12:19:39;;;;;;;4.35;1.40;;;;;;;;;;20778992;28;20249;-72
2023/06/16 12:29:41;;;;;;;1.00;0.75;;;;;;;;;;20805716;28;20232;-71
2023/06/16 12:39:55;;;;;;;2.30;1.10;;;;;;;;;;20772954;28;20276;-72
2023/06/16 12:49:58;;;;;;;1.80;0.90;;;;;;;;;;20759810;28;20217;-72
2023/06/16 12:59:59;;;;;;;1.92;1.02;;;;;;;;;;20770731;28;20283;-71
2023/06/16 13:10:01;;;;;;;1.65;0.90;;;;;;;;;;20771138;28;20276;-72
2023/06/16 13:20:04;;;;;;;1.75;0.90;;;30.00;61.00;;;;;;20778388;28;20272;-72
2023/06/16 13:30:06;;;;;;;2.08;0.90;;;29.70;61.30;;;;;;20770005;28;20234;-72
2023/06/16 13:40:09;;;;;;;1.60;1.10;;;;;;;;;;20785507;28;20256;-72
2023/06/16 13:50:11;;;;;;;1.88;1.20;;;;;;;;;;20752634;28;20233;-72
2023/06/16 14:00:13;;;;;;;4.88;1.10;;;30.60;57.90;;;;;;20783564;28;20218;-74
2023/06/16 14:10:17;;;;;;;2.72;1.23;;;30.90;59.20;;;;;;20751371;28;20710;-72
2023/06/16 14:20:19;;;;;;;1.80;1.00;;;;;;;;;;20753373;28;20261;-73
2023/06/16 14:30:21;;;;;;;2.53;1.00;;;;;;;;;;20768261;28;20276;-71
2023/06/16 14:40:23;;;;;;;2.92;0.82;;;;;;;;;;20783643;28;20272;-73
2023/06/16 14:50:25;;;;;;;1.67;0.85;;;;;;;;;;20766409;28;20604;-72
2023/06/16 15:00:27;;;;;;;2.75;0.80;;;;;;;;;;20780820;28;20234;-72
2023/06/16 15:10:30;;;;;;;1.38;0.70;;;;;;;;;;20777815;28;20234;-72
2023/06/16 15:20:32;;;;;;;1.80;0.90;;;;;;;;;;20785155;28;20223;-73
2023/06/16 15:30:34;;;;;;;1.42;0.75;;;;;;;;;;20759344;28;20590;-73
2023/06/16 15:40:36;;;;;;;2.25;0.68;;;;;;;;;;20756103;28;20221;-73
2023/06/16 15:50:38;;;;;;;2.20;1.08;;;;;;;;;;20788033;28;20707;-72
2023/06/16 16:00:40;;;;;;;1.73;0.70;;;;;;;;;;20776138;28;20226;-72
2023/06/16 16:10:41;;;;;;;1.83;0.90;;;;;;;;;;20776447;28;20253;-69
2023/06/16 16:20:43;;;;;;;1.30;0.88;;;;;;;;;;20779181;28;20270;-70
2023/06/16 16:30:45;;;;;;;2.03;1.00;;;;;;;;;;20762796;28;20252;-68
2023/06/16 16:40:47;;;;;;;1.48;0.85;;;;;;;;;;20786424;28;20215;-68
2023/06/16 16:50:54;;;;;;;5.90;0.90;;;;;;;;;;20748167;28;20307;-67
2023/06/16 17:00:56;;;;;;;1.30;0.75;;;;;;;;;;20808514;28;20300;-67
2023/06/16 17:10:58;;;;;;;1.45;0.70;;;;;;;;;;20773055;28;20297;-67
2023/06/16 17:21:00;;;;;;;2.08;0.98;;;;;;;;;;20765023;28;20303;-67
2023/06/16 17:31:03;;;;;;;1.77;1.00;;;;;;;;;;20791069;28;20230;-68
2023/06/16 17:41:05;;;;;;;1.63;0.80;;;;;;;;;;20757492;28;20301;-67
2023/06/16 17:51:07;;;;;;;1.48;1.00;;;;;;;;;;20770573;28;20769;-67
2023/06/16 18:01:09;;;;;;;1.20;0.70;;;;;;;;;;20738986;28;20848;-67
2023/06/16 18:11:11;;;;;;;1.13;0.80;;;;;;;;;;20773576;28;20233;-67
2023/06/16 18:21:15;;;;;;;1.23;0.80;;;;;;;;;;20756733;28;20252;-67
2023/06/16 18:31:19;;;;;;;2.90;0.80;;;;;;;;;;20759933;28;20225;-67
2023/06/16 18:41:21;;;;;;;1.75;0.85;;;;;;;;;;20769856;28;20587;-68
2023/06/16 18:51:23;;;;;;;2.72;0.80;;;;;;;;;;20776890;28;20313;-67
2023/06/16 19:01:26;;;;;;;3.13;1.25;;;;;;;;;;20778779;28;20768;-67
2023/06/16 19:11:28;;;;;;;1.58;0.88;;;;;;;;;;20777388;28;20225;-67
2023/06/16 19:21:31;;;;;;;2.13;1.00;;;;;;;;;;20798123;28;20218;-67
2023/06/16 19:31:33;;;;;;;2.75;1.13;;;;;;;;;;20758006;28;20288;-67
2023/06/16 19:41:35;;;;;;;1.95;1.08;;;;;;;;;;20753431;28;20221;-67
2023/06/16 19:51:37;;;;;;;1.92;0.93;;;;;;;;;;20777185;28;20234;-67
2023/06/16 20:01:39;;;;;;;1.65;0.98;;;27.70;74.50;;;;;;20810429;28;20792;-68
2023/06/16 20:11:41;;;;;;;2.15;1.30;;;;;;;;;;20789449;28;20216;-68
2023/06/16 20:21:43;;;;;;;2.53;1.17;;;;;;;;;;20771949;28;20752;-68
2023/06/16 20:31:45;;;;;;;2.13;1.30;;;;;;;;;;20770240;28;20271;-68
2023/06/16 20:41:47;;;;;;;1.85;1.00;;;;;;;;;;20801537;28;20221;-67
2023/06/16 20:51:51;;;;;;;2.15;1.40;;;;;;;;;;20788916;28;20298;-67
2023/06/16 21:01:53;;;;;;;3.35;1.10;;;;;;;;;;20772353;28;20311;-67
2023/06/16 21:11:55;;;;;;;1.63;1.27;;;;;;;;;;20778026;28;20875;-67
2023/06/16 21:21:57;;;;;;;3.60;1.30;;;;;;;;;;20786430;28;20235;-67
2023/06/16 21:31:59;;;;;;;4.57;1.40;;;;;;;;;;20763689;28;20221;-68
2023/06/16 21:42:01;;;;;;;3.63;1.42;;;;;;;;;;20785618;28;20703;-67
2023/06/16 21:52:05;;;;;;;3.72;1.70;;;26.50;75.00;;;;;;20784616;28;20237;-67
2023/06/16 22:02:07;;;;;;;5.65;1.40;;;26.00;83.00;;;;;;20768354;28;20254;-67
2023/06/16 22:12:11;;;;;;;2.28;1.17;;;;;;;;;;20781956;28;20272;-68
2023/06/16 22:22:13;;;;;;;2.45;1.33;;;;;;;;;;20771283;28;20637;-67
2023/06/16 22:32:16;;;;;;;4.57;1.40;;;;;;;;;;20784108;28;20268;-66
2023/06/16 22:42:18;;;;;;;5.68;1.58;;;;;;;;;;20798726;28;20287;-67
2023/06/16 22:52:20;;;;;;;6.88;2.03;;;;;;;;;;20798014;28;20259;-67
2023/06/16 23:02:22;;;;;;;3.22;1.60;;;;;;;;;;20780215;28;20233;-67
2023/06/16 23:12:24;;;;;;;2.85;1.13;;;;;;;;;;20780763;28;20291;-67
2023/06/16 23:22:26;;;;;;;2.33;1.60;;;;;;;;;;20779241;28;20565;-68
2023/06/16 23:32:28;;;;;;;3.95;1.40;;;;;;;;;;20786398;28;20289;-67
2023/06/16 23:42:30;;;;;;;2.95;1.20;;;;;;;;;;20778715;28;20251;-67
2023/06/16 23:52:32;;;;;;;4.60;1.60;;;;;;;;;;20791891;28;20216;-67
